createdAt,value
2023-02-23T00:01:22.212Z,13.90
2023-02-23T00:03:50.303Z,14.30
2023-02-23T00:06:18.742Z,13.80
2023-02-23T00:08:47.987Z,12.90
2023-02-23T00:11:17.043Z,13.10
2023-02-23T00:13:50.163Z,14.10
2023-02-23T00:16:19.834Z,13.30
2023-02-23T00:18:50.707Z,13.40
2023-02-23T00:21:20.145Z,13.70
2023-02-23T00:23:49.897Z,13.90
2023-02-23T00:26:20.893Z,13.70
2023-02-23T00:28:49.296Z,13.30
2023-02-23T00:31:18.077Z,13.90
2023-02-23T00:33:46.305Z,13.50
2023-02-23T00:36:14.973Z,14.00
2023-02-23T00:38:42.872Z,13.80
2023-02-23T00:41:14.376Z,13.10
2023-02-23T00:43:47.590Z,13.90
2023-02-23T00:46:21.169Z,14.00
2023-02-23T00:48:49.681Z,13.30
2023-02-23T00:51:18.557Z,13.20
2023-02-23T00:53:46.483Z,13.80
2023-02-23T00:56:14.898Z,13.70
2023-02-23T00:58:43.049Z,14.20
2023-02-23T01:01:12.214Z,12.60
2023-02-23T01:03:41.496Z,13.90
2023-02-23T01:06:11.314Z,13.10
2023-02-23T01:08:41.196Z,13.00
2023-02-23T01:12:30.875Z,13.20
2023-02-23T01:14:59.036Z,13.20
2023-02-23T01:17:27.983Z,12.90
2023-02-23T01:19:58.345Z,12.80
2023-02-23T01:22:26.507Z,14.30
2023-02-23T01:24:54.269Z,13.40
2023-02-23T01:27:22.047Z,15.10
2023-02-23T01:29:49.830Z,13.90
2023-02-23T01:32:17.648Z,13.90
2023-02-23T01:34:45.564Z,14.40
2023-02-23T01:37:13.247Z,14.40
2023-02-23T01:39:41.026Z,14.90
2023-02-23T01:42:14.984Z,13.70
2023-02-23T01:44:42.710Z,14.80
2023-02-23T01:47:13.078Z,13.60
2023-02-23T01:49:40.921Z,14.40
2023-02-23T01:52:13.513Z,14.90
2023-02-23T01:54:51.342Z,15.00
2023-02-23T01:57:20.713Z,14.90
2023-02-23T01:59:49.789Z,14.20
2023-02-23T02:02:18.610Z,13.70
2023-02-23T02:04:46.604Z,15.10
2023-02-23T02:07:16.268Z,16.00
2023-02-23T02:10:04.535Z,15.30
2023-02-23T02:12:33.093Z,14.60
2023-02-23T02:15:02.667Z,15.50
2023-02-23T02:17:45.728Z,15.50
2023-02-23T02:20:33.315Z,15.30
2023-02-23T02:23:16.072Z,15.90
2023-02-23T02:25:56.324Z,13.80
2023-02-23T02:28:43.335Z,15.50
2023-02-23T02:31:30.302Z,15.10
2023-02-23T02:34:07.630Z,16.30
2023-02-23T02:36:44.404Z,16.00
2023-02-23T02:39:24.011Z,14.50
2023-02-23T02:42:10.852Z,15.20
2023-02-23T02:44:43.314Z,14.60
2023-02-23T02:47:19.624Z,14.80
2023-02-23T02:49:52.390Z,14.90
2023-02-23T02:52:26.241Z,15.90
2023-02-23T02:54:57.136Z,15.40
2023-02-23T02:57:26.608Z,15.30
2023-02-23T03:00:13.261Z,15.70
2023-02-23T03:02:59.845Z,16.30
2023-02-23T03:05:49.464Z,16.70
2023-02-23T03:08:35.850Z,15.40
2023-02-23T03:11:22.281Z,15.00
2023-02-23T03:14:27.928Z,14.40
2023-02-23T03:17:20.451Z,15.00
2023-02-23T03:20:25.124Z,16.50
2023-02-23T03:23:17.160Z,15.30
2023-02-23T03:26:16.512Z,15.00
2023-02-23T03:29:23.044Z,15.60
2023-02-23T03:32:18.612Z,15.80
2023-02-23T03:35:26.505Z,16.00
2023-02-23T03:38:34.625Z,15.10
2023-02-23T03:41:21.766Z,16.60
2023-02-23T03:44:11.501Z,15.60
2023-02-23T03:46:59.040Z,16.00
2023-02-23T03:49:48.330Z,15.80
2023-02-23T03:52:37.671Z,14.90
2023-02-23T03:55:29.680Z,16.00
2023-02-23T03:58:20.315Z,15.50
2023-02-23T04:01:08.565Z,15.80
2023-02-23T04:03:57.030Z,16.70
2023-02-23T04:06:46.598Z,16.30
2023-02-23T04:09:33.324Z,16.30
2023-02-23T04:12:23.428Z,16.30
2023-02-23T04:15:09.976Z,17.70
2023-02-23T04:17:37.851Z,16.20
2023-02-23T04:20:07.275Z,17.10
2023-02-23T04:22:35.644Z,16.60
2023-02-23T04:25:03.736Z,17.20
2023-02-23T04:27:31.600Z,19.80
2023-02-23T04:29:59.304Z,18.40
2023-02-23T04:32:27.335Z,17.70
2023-02-23T04:34:55.431Z,17.30
2023-02-23T04:37:23.183Z,21.90
2023-02-23T04:39:50.946Z,25.70
2023-02-23T04:42:19.329Z,25.90
2023-02-23T04:44:47.091Z,17.50
2023-02-23T04:47:15.537Z,22.40
2023-02-23T04:49:44.080Z,21.40
2023-02-23T04:52:11.903Z,21.20
2023-02-23T04:54:40.239Z,23.60
2023-02-23T04:57:08.971Z,25.60
2023-02-23T04:59:36.762Z,22.90
2023-02-23T05:02:04.607Z,20.40
2023-02-23T05:04:32.585Z,17.70
2023-02-23T05:07:00.721Z,16.40
2023-02-23T05:09:28.484Z,15.50
2023-02-23T05:11:56.304Z,16.20
2023-02-23T05:14:24.111Z,15.50
2023-02-23T05:16:53.209Z,15.80
2023-02-23T05:19:25.870Z,15.10
2023-02-23T05:21:56.277Z,15.90
2023-02-23T05:24:24.138Z,16.70
2023-02-23T05:26:51.966Z,16.10
2023-02-23T05:29:20.096Z,17.30
2023-02-23T05:31:49.322Z,19.90
2023-02-23T05:34:17.910Z,16.80
2023-02-23T05:36:47.275Z,18.30
2023-02-23T05:39:15.131Z,19.50
2023-02-23T05:41:43.024Z,19.00
2023-02-23T05:44:10.875Z,17.90
2023-02-23T05:46:39.446Z,18.50
2023-02-23T05:49:07.575Z,17.70
2023-02-23T05:51:35.558Z,19.10
2023-02-23T05:54:03.522Z,18.60
2023-02-23T05:56:31.700Z,19.00
2023-02-23T05:58:59.962Z,18.10
2023-02-23T06:01:28.170Z,17.30
2023-02-23T06:03:56.368Z,17.00
2023-02-23T06:06:25.572Z,15.90
2023-02-23T06:08:53.598Z,16.20
2023-02-23T06:11:21.830Z,15.70
2023-02-23T06:13:50.234Z,16.80
2023-02-23T06:16:18.098Z,15.50
2023-02-23T06:18:46.181Z,16.00
2023-02-23T06:21:14.691Z,16.40
2023-02-23T06:23:42.492Z,15.40
2023-02-23T06:26:10.814Z,17.30
2023-02-23T06:28:38.667Z,17.20
2023-02-23T06:31:07.075Z,19.80
2023-02-23T06:33:35.091Z,17.20
2023-02-23T06:36:02.892Z,18.10
2023-02-23T06:38:30.827Z,18.70
2023-02-23T06:40:58.643Z,21.00
2023-02-23T06:43:26.477Z,21.00
2023-02-23T06:45:54.361Z,19.80
2023-02-23T06:48:22.274Z,17.50
2023-02-23T06:50:50.140Z,17.40
2023-02-23T06:53:18.591Z,16.80
2023-02-23T06:55:46.526Z,16.50
2023-02-23T06:58:14.620Z,15.90
2023-02-23T07:00:43.807Z,16.70
2023-02-23T07:03:11.944Z,14.70
2023-02-23T07:05:41.021Z,17.90
2023-02-23T07:08:08.908Z,17.80
2023-02-23T07:10:36.865Z,17.30
2023-02-23T07:13:04.743Z,17.70
2023-02-23T07:15:32.594Z,17.10
2023-02-23T07:18:00.295Z,16.90
2023-02-23T07:20:28.173Z,15.80
2023-02-23T07:22:56.085Z,16.40
2023-02-23T07:25:23.928Z,16.20
2023-02-23T07:27:51.937Z,18.60
2023-02-23T07:30:20.188Z,18.20
2023-02-23T07:32:47.956Z,18.20
2023-02-23T07:35:15.958Z,16.60
2023-02-23T07:37:43.825Z,15.50
2023-02-23T07:40:12.022Z,20.00
2023-02-23T07:42:40.053Z,16.90
2023-02-23T07:45:08.342Z,18.10
2023-02-23T07:47:39.459Z,23.70
2023-02-23T07:50:10.018Z,23.40
2023-02-23T07:52:38.488Z,21.50
2023-02-23T07:55:07.323Z,16.40
2023-02-23T07:57:35.229Z,15.60
2023-02-23T08:00:04.242Z,14.40
2023-02-23T08:02:32.926Z,15.60
2023-02-23T08:05:00.850Z,15.50
2023-02-23T08:07:28.656Z,15.30
2023-02-23T08:09:56.589Z,14.70
2023-02-23T08:12:24.356Z,16.20
2023-02-23T08:14:54.367Z,14.40
2023-02-23T08:17:22.180Z,15.60
2023-02-23T08:19:50.211Z,15.20
2023-02-23T08:22:17.980Z,15.80
2023-02-23T08:24:45.912Z,15.70
2023-02-23T08:27:14.252Z,16.30
2023-02-23T08:29:42.128Z,15.80
2023-02-23T08:32:10.125Z,15.50
2023-02-23T08:34:43.173Z,14.60
2023-02-23T08:37:11.647Z,15.60
2023-02-23T08:39:39.640Z,15.30
2023-02-23T08:42:07.451Z,17.90
2023-02-23T08:44:35.265Z,16.90
2023-02-23T08:47:04.668Z,16.90
2023-02-23T08:49:33.567Z,15.80
2023-02-23T08:52:01.414Z,15.70
2023-02-23T08:54:29.329Z,17.70
2023-02-23T08:56:58.332Z,16.10
2023-02-23T08:59:27.335Z,15.60
2023-02-23T09:01:55.202Z,18.80
2023-02-23T09:04:23.044Z,16.40
2023-02-23T09:06:51.426Z,17.20
2023-02-23T09:09:19.182Z,17.60
2023-02-23T09:11:46.926Z,20.90
2023-02-23T09:14:14.737Z,17.30
2023-02-23T09:16:44.676Z,15.10
2023-02-23T09:19:12.854Z,15.50
2023-02-23T09:21:40.681Z,16.60
2023-02-23T09:24:08.460Z,15.40
2023-02-23T09:26:40.119Z,15.70
2023-02-23T09:29:08.010Z,15.70
2023-02-23T09:31:35.833Z,14.50
2023-02-23T09:34:03.663Z,14.10
2023-02-23T09:36:32.223Z,14.40
2023-02-23T09:39:00.204Z,13.70
2023-02-23T09:41:45.131Z,14.50
2023-02-23T09:44:12.965Z,14.60
2023-02-23T09:46:47.035Z,14.20
2023-02-23T09:49:17.232Z,14.60
2023-02-23T09:51:48.795Z,14.50
2023-02-23T09:54:17.445Z,15.20
2023-02-23T09:56:46.442Z,14.50
2023-02-23T09:59:16.160Z,14.90
2023-02-23T10:01:50.012Z,14.20
2023-02-23T10:04:23.667Z,14.00
2023-02-23T10:07:02.892Z,15.00
2023-02-23T10:09:43.243Z,15.50
2023-02-23T10:12:20.052Z,13.60
2023-02-23T10:15:01.517Z,13.70
2023-02-23T10:17:38.416Z,14.10
2023-02-23T10:20:18.418Z,14.30
2023-02-23T10:22:48.742Z,14.10
2023-02-23T10:25:20.043Z,13.80
2023-02-23T10:27:48.916Z,13.20
2023-02-23T10:30:26.055Z,14.10
2023-02-23T10:32:56.659Z,13.30
2023-02-23T10:35:24.775Z,14.50
2023-02-23T10:37:53.726Z,15.40
2023-02-23T10:40:23.511Z,13.40
2023-02-23T10:42:55.849Z,14.50
2023-02-23T10:45:25.268Z,13.40
2023-02-23T10:47:58.051Z,15.10
2023-02-23T10:50:29.341Z,13.40
2023-02-23T10:52:58.976Z,13.80
2023-02-23T10:55:28.737Z,13.70
2023-02-23T10:58:08.427Z,14.10
2023-02-23T11:00:38.854Z,14.60
2023-02-23T11:03:24.423Z,14.00
2023-02-23T11:05:55.457Z,13.50
2023-02-23T11:08:36.820Z,14.50
2023-02-23T11:11:06.301Z,13.90
2023-02-23T11:13:36.276Z,14.10
2023-02-23T11:16:06.345Z,13.90
2023-02-23T11:18:34.192Z,14.30
2023-02-23T11:21:02.240Z,14.90
2023-02-23T11:23:34.632Z,14.60
2023-02-23T11:26:03.972Z,17.50
2023-02-23T11:28:33.968Z,15.80
2023-02-23T11:31:09.855Z,17.10
2023-02-23T11:33:39.106Z,15.80
2023-02-23T11:36:17.774Z,14.70
2023-02-23T11:38:47.197Z,15.90
2023-02-23T11:41:22.637Z,18.40
2023-02-23T11:43:51.544Z,14.70
2023-02-23T11:46:22.654Z,13.90
2023-02-23T11:49:11.102Z,15.20
2023-02-23T11:51:40.537Z,16.70
2023-02-23T11:54:19.880Z,15.00
2023-02-23T11:56:52.345Z,14.60
2023-02-23T11:59:21.705Z,15.40
2023-02-23T12:01:53.269Z,15.40
2023-02-23T12:04:30.355Z,15.60
2023-02-23T12:07:17.244Z,13.60
2023-02-23T12:09:46.108Z,14.20
2023-02-23T12:12:16.199Z,14.70
2023-02-23T12:14:49.867Z,15.00
2023-02-23T12:17:28.051Z,15.50
2023-02-23T12:19:58.618Z,14.90
2023-02-23T12:22:33.165Z,16.60
2023-02-23T12:25:15.986Z,15.60
2023-02-23T12:27:43.964Z,15.30
2023-02-23T12:30:31.709Z,14.80
2023-02-23T12:33:07.017Z,15.20
2023-02-23T12:35:55.847Z,15.40
2023-02-23T12:38:28.120Z,15.30
2023-02-23T12:40:59.769Z,15.00
2023-02-23T12:43:27.888Z,16.40
2023-02-23T12:46:12.292Z,14.70
2023-02-23T12:48:59.388Z,16.00
2023-02-23T12:51:27.550Z,15.40
2023-02-23T12:53:55.532Z,14.60
2023-02-23T12:56:42.744Z,14.00
2023-02-23T12:59:16.576Z,13.90
2023-02-23T13:01:55.168Z,15.40
2023-02-23T13:04:42.383Z,14.90
2023-02-23T13:07:16.926Z,14.60
2023-02-23T13:09:50.996Z,16.40
2023-02-23T13:12:19.106Z,14.10
2023-02-23T13:15:06.145Z,19.60
2023-02-23T13:17:37.026Z,14.60
2023-02-23T13:20:14.338Z,14.90
2023-02-23T13:23:01.626Z,15.50
2023-02-23T13:25:46.536Z,16.00
2023-02-23T13:28:36.162Z,15.80
2023-02-23T13:31:06.051Z,15.90
2023-02-23T13:33:43.923Z,15.50
2023-02-23T13:36:14.021Z,15.80
2023-02-23T13:39:04.976Z,14.90
2023-02-23T13:41:43.801Z,15.70
2023-02-23T13:44:38.667Z,16.00
2023-02-23T13:47:10.729Z,15.10
2023-02-23T13:49:46.565Z,14.90
2023-02-23T13:52:26.548Z,17.60
2023-02-23T13:54:57.145Z,16.90
2023-02-23T13:57:26.377Z,16.20
2023-02-23T13:59:54.634Z,16.30
2023-02-23T14:02:28.905Z,15.60
2023-02-23T14:04:58.098Z,15.80
2023-02-23T14:07:28.998Z,14.90
2023-02-23T14:09:59.719Z,15.70
2023-02-23T14:12:36.117Z,15.20
2023-02-23T14:15:28.568Z,16.50
2023-02-23T14:18:03.710Z,16.40
2023-02-23T14:20:40.797Z,16.80
2023-02-23T14:23:20.708Z,17.50
2023-02-23T14:25:48.593Z,16.10
2023-02-23T14:28:32.747Z,15.20
2023-02-23T14:31:13.011Z,16.90
2023-02-23T14:33:48.647Z,15.30
2023-02-23T14:36:25.922Z,15.10
2023-02-23T14:38:57.076Z,16.40
2023-02-23T14:41:26.952Z,14.70
2023-02-23T14:44:29.696Z,17.00
2023-02-23T14:46:58.459Z,15.00
2023-02-23T14:49:28.044Z,15.80
2023-02-23T14:51:58.574Z,16.00
2023-02-23T14:54:39.824Z,16.20
2023-02-23T14:57:20.180Z,16.50
2023-02-23T14:59:54.323Z,16.40
2023-02-23T15:02:24.378Z,16.00
2023-02-23T15:04:52.783Z,18.00
2023-02-23T15:07:25.552Z,15.20
2023-02-23T15:09:54.997Z,17.00
2023-02-23T15:12:27.131Z,16.70
2023-02-23T15:14:59.755Z,17.00
2023-02-23T15:17:32.009Z,16.50
2023-02-23T15:20:15.852Z,15.90
2023-02-23T15:22:51.942Z,16.10
2023-02-23T15:25:33.811Z,16.30
2023-02-23T15:28:10.302Z,15.30
2023-02-23T15:30:44.401Z,16.80
2023-02-23T15:33:13.245Z,17.90
2023-02-23T15:35:47.663Z,17.20
2023-02-23T15:38:42.397Z,16.10
2023-02-23T15:41:34.913Z,17.10
2023-02-23T15:44:06.429Z,16.60
2023-02-23T15:46:34.365Z,17.10
2023-02-23T15:49:04.867Z,18.20
2023-02-23T15:51:40.637Z,22.30
2023-02-23T15:54:29.899Z,22.40
2023-02-23T15:57:01.317Z,21.20
2023-02-23T15:59:31.333Z,21.00
2023-02-23T16:02:03.090Z,20.50
2023-02-23T16:04:32.996Z,18.70
2023-02-23T16:07:22.151Z,18.40
2023-02-23T16:09:50.114Z,18.30
2023-02-23T16:12:32.891Z,20.30
2023-02-23T16:15:02.329Z,23.80
2023-02-23T16:17:35.259Z,24.10
2023-02-23T16:20:35.454Z,22.70
2023-02-23T16:23:04.810Z,24.80
2023-02-23T16:25:33.494Z,28.90
2023-02-23T16:28:10.015Z,30.30
2023-02-23T16:30:43.428Z,33.10
2023-02-23T16:33:19.225Z,38.00
2023-02-23T16:35:49.304Z,57.60
2023-02-23T16:38:43.369Z,54.80
2023-02-23T16:41:18.374Z,49.80
2023-02-23T16:43:48.667Z,83.00
2023-02-23T16:46:17.685Z,90.70
2023-02-23T16:48:46.096Z,82.10
2023-02-23T16:51:18.312Z,73.00
2023-02-23T16:53:46.577Z,64.30
2023-02-23T16:56:19.257Z,70.30
2023-02-23T16:58:48.962Z,81.50
2023-02-23T17:01:18.968Z,78.60
2023-02-23T17:04:05.971Z,75.20
2023-02-23T17:06:34.075Z,71.50
2023-02-23T17:09:02.162Z,67.80
2023-02-23T17:11:30.422Z,61.60
2023-02-23T17:13:58.196Z,60.20
2023-02-23T17:16:26.117Z,67.40
2023-02-23T17:18:54.080Z,65.50
2023-02-23T17:21:24.511Z,56.10
2023-02-23T17:23:53.236Z,56.20
2023-02-23T17:26:23.211Z,58.70
2023-02-23T17:28:53.381Z,60.60
2023-02-23T17:31:24.080Z,63.90
2023-02-23T17:33:55.498Z,70.80
2023-02-23T17:36:24.076Z,76.40
2023-02-23T17:38:58.986Z,67.10
2023-02-23T17:48:07.510Z,92.10
2023-02-23T17:50:35.341Z,91.60
2023-02-23T17:53:03.385Z,92.70
2023-02-23T17:55:31.331Z,102.70
2023-02-23T17:57:59.463Z,99.70
2023-02-23T18:00:28.812Z,99.20
2023-02-23T18:02:56.880Z,93.00
2023-02-23T18:05:25.799Z,96.10
2023-02-23T18:07:54.175Z,99.60
2023-02-23T18:10:25.788Z,92.30
2023-02-23T18:12:54.658Z,82.80
2023-02-23T18:15:27.151Z,74.90
2023-02-23T18:17:57.784Z,72.40
2023-02-23T18:20:26.370Z,73.20
2023-02-23T18:22:54.546Z,70.10
2023-02-23T18:25:27.960Z,72.20
2023-02-23T18:27:56.634Z,67.20
2023-02-23T18:30:27.384Z,67.00
2023-02-23T18:32:56.647Z,57.40
2023-02-23T18:35:25.006Z,52.20
2023-02-23T18:37:53.258Z,55.00
2023-02-23T18:40:24.058Z,57.20
2023-02-23T18:42:53.129Z,61.90
2023-02-23T18:45:21.101Z,62.00
2023-02-23T18:47:49.773Z,65.70
2023-02-23T18:50:19.498Z,68.40
2023-02-23T18:52:49.082Z,67.10
2023-02-23T18:55:17.843Z,62.80
2023-02-23T18:57:46.016Z,64.30
2023-02-23T19:00:15.626Z,60.60
2023-02-23T19:02:46.999Z,55.40
2023-02-23T19:05:20.147Z,49.00
2023-02-23T19:07:49.684Z,53.30
2023-02-23T19:10:20.810Z,48.40
2023-02-23T19:12:51.294Z,47.20
2023-02-23T19:15:19.766Z,48.20
2023-02-23T19:17:47.902Z,49.70
2023-02-23T19:20:16.494Z,49.40
2023-02-23T19:22:45.789Z,44.10
2023-02-23T19:25:14.811Z,39.40
2023-02-23T19:27:43.520Z,36.20
2023-02-23T19:30:12.729Z,36.50
2023-02-23T19:32:41.024Z,38.00
2023-02-23T19:35:10.915Z,37.70
2023-02-23T19:37:51.739Z,39.30
2023-02-23T19:40:23.044Z,37.30
2023-02-23T19:42:53.086Z,37.20
2023-02-23T19:45:22.161Z,37.20
2023-02-23T19:47:52.676Z,42.60
2023-02-23T19:50:43.260Z,42.10
2023-02-23T19:53:35.056Z,42.00
2023-02-23T19:56:05.768Z,41.30
2023-02-23T19:58:34.505Z,43.70
2023-02-23T20:01:10.321Z,41.50
2023-02-23T20:03:39.690Z,39.70
2023-02-23T20:06:07.829Z,42.20
2023-02-23T20:08:36.040Z,42.30
2023-02-23T20:11:05.553Z,42.70
2023-02-23T20:13:34.372Z,40.90
2023-02-23T20:16:02.807Z,44.70
2023-02-23T20:18:33.606Z,48.80
2023-02-23T20:21:09.233Z,51.20
2023-02-23T20:23:37.456Z,47.70
2023-02-23T20:26:06.606Z,46.40
2023-02-23T20:28:34.939Z,38.60
2023-02-23T20:31:03.780Z,35.40
2023-02-23T20:33:32.486Z,34.10
2023-02-23T20:36:00.708Z,34.90
2023-02-23T20:38:28.770Z,37.20
2023-02-23T20:40:59.102Z,41.70
2023-02-23T20:43:27.274Z,42.20
2023-02-23T20:45:57.316Z,40.70
2023-02-23T20:48:27.310Z,38.50
2023-02-23T20:50:55.791Z,42.90
2023-02-23T20:53:24.680Z,42.30
2023-02-23T20:55:52.797Z,43.10
2023-02-23T20:58:26.517Z,44.90
2023-02-23T21:01:00.360Z,44.50
2023-02-23T21:03:28.835Z,42.90
2023-02-23T21:05:56.832Z,44.40
2023-02-23T21:08:24.800Z,46.10
2023-02-23T21:10:52.825Z,47.40
2023-02-23T21:13:23.348Z,46.60
2023-02-23T21:15:58.629Z,49.00
2023-02-23T21:18:27.854Z,47.40
2023-02-23T21:20:57.135Z,50.70
2023-02-23T21:23:25.657Z,52.20
2023-02-23T21:26:16.234Z,49.70
2023-02-23T21:28:45.763Z,52.00
2023-02-23T21:31:17.404Z,50.30
2023-02-23T21:33:49.424Z,49.80
2023-02-23T21:36:17.578Z,48.70
2023-02-23T21:38:45.883Z,51.40
2023-02-23T21:41:14.378Z,50.80
2023-02-23T21:43:44.808Z,49.50
2023-02-23T21:46:14.428Z,48.70
2023-02-23T22:01:10.303Z,45.80
2023-02-23T22:03:37.131Z,45.30
2023-02-23T22:06:04.211Z,45.30
2023-02-23T22:08:30.831Z,44.00
2023-02-23T22:10:57.271Z,45.10
2023-02-23T22:13:23.774Z,43.40
2023-02-23T22:15:50.203Z,40.60
2023-02-23T22:18:17.342Z,44.70
2023-02-23T22:20:45.054Z,42.20
2023-02-23T22:23:11.427Z,42.40
2023-02-23T22:25:37.877Z,41.90
2023-02-23T22:28:08.333Z,42.40
2023-02-23T22:30:34.995Z,40.60
2023-02-23T22:33:01.815Z,42.50
2023-02-23T22:35:28.262Z,45.60
2023-02-23T22:37:54.697Z,43.70
2023-02-23T22:46:52.869Z,38.60
2023-02-23T22:49:22.324Z,41.10
2023-02-23T22:51:50.131Z,43.80
2023-02-23T22:54:17.619Z,43.20
2023-02-23T22:56:46.423Z,41.80
2023-02-23T22:59:16.797Z,39.60
2023-02-23T23:01:43.431Z,40.00
2023-02-23T23:04:10.057Z,39.50
2023-02-23T23:06:37.570Z,40.40
2023-02-23T23:09:04.968Z,41.10
2023-02-23T23:11:31.327Z,40.20
2023-02-23T23:14:02.305Z,42.30
2023-02-23T23:16:32.374Z,39.30
2023-02-23T23:19:04.054Z,41.00
2023-02-23T23:21:31.883Z,37.30
2023-02-23T23:23:59.390Z,38.20
2023-02-23T23:26:27.030Z,39.70
2023-02-23T23:28:57.290Z,40.20
2023-02-23T23:31:27.341Z,38.90
2023-02-23T23:33:59.426Z,37.80
2023-02-23T23:36:28.178Z,37.40
2023-02-23T23:38:55.793Z,33.90
2023-02-23T23:41:24.087Z,35.50
2023-02-23T23:43:57.332Z,36.10
2023-02-23T23:46:23.854Z,37.50
2023-02-23T23:48:53.742Z,37.30
2023-02-23T23:51:23.646Z,35.70
2023-02-23T23:53:53.998Z,38.40
2023-02-23T23:56:20.888Z,34.10
2023-02-23T23:58:48.202Z,34.70
